createdAt,value
2023-02-08T08:34:46.187Z,99.90
2023-02-08T08:39:40.053Z,99.90
2023-02-08T08:44:33.831Z,99.90
2023-02-08T08:49:28.153Z,99.90
2023-02-08T08:54:23.765Z,99.90
2023-02-08T08:59:17.429Z,99.90
2023-02-08T09:04:11.493Z,99.90
2023-02-08T09:09:05.971Z,99.90
2023-02-08T09:14:03.883Z,99.90
2023-02-08T09:18:57.847Z,99.90
2023-02-08T09:23:51.493Z,99.90
2023-02-08T09:28:45.371Z,99.90
2023-02-08T09:33:40.699Z,99.90
2023-02-08T09:38:34.846Z,99.90
2023-02-08T09:43:37.180Z,99.90
2023-02-08T09:48:35.276Z,99.90
2023-02-08T09:53:36.782Z,99.90
2023-02-08T09:58:36.097Z,99.90
2023-02-08T10:03:36.258Z,99.90
2023-02-08T10:08:35.511Z,99.90
2023-02-08T10:13:42.899Z,99.90
2023-02-08T10:18:46.720Z,99.90
2023-02-08T10:24:06.941Z,99.90
2023-02-08T10:29:33.669Z,99.90
2023-02-08T10:34:37.241Z,99.90
2023-02-08T10:39:35.791Z,99.90
2023-02-08T10:44:36.135Z,99.90
2023-02-08T10:49:40.505Z,99.90
2023-02-08T10:54:36.399Z,99.90
2023-02-08T10:59:34.816Z,99.90
2023-02-08T11:04:29.098Z,99.90
2023-02-08T11:09:25.946Z,99.90
2023-02-08T11:14:27.122Z,99.90
2023-02-08T11:19:35.562Z,99.50
2023-02-08T11:24:36.105Z,99.90
2023-02-08T11:29:32.279Z,98.80
2023-02-08T11:34:28.325Z,98.70
2023-02-08T11:39:26.073Z,98.00
2023-02-08T11:44:24.760Z,96.50
2023-02-08T11:49:29.366Z,96.70
2023-02-08T11:54:41.647Z,94.70
2023-02-08T11:59:40.844Z,94.60
2023-02-08T12:04:37.182Z,94.00
2023-02-08T12:09:56.094Z,92.60
2023-02-08T12:15:02.142Z,91.70
2023-02-08T12:20:26.140Z,90.50
2023-02-08T12:25:30.162Z,91.10
2023-02-08T12:30:31.102Z,91.10
2023-02-08T12:36:04.205Z,90.40
2023-02-08T12:41:12.805Z,88.70
2023-02-08T12:46:27.967Z,89.10
2023-02-08T12:51:32.596Z,85.90
2023-02-08T12:56:29.947Z,86.20
2023-02-08T13:01:27.807Z,86.90
2023-02-08T13:06:28.644Z,85.70
2023-02-08T13:11:29.491Z,86.10
2023-02-08T13:16:26.677Z,86.60
2023-02-08T13:21:25.433Z,85.80
2023-02-08T13:26:26.691Z,85.70
2023-02-08T13:31:24.469Z,85.00
2023-02-08T13:36:25.689Z,83.90
2023-02-08T13:41:23.959Z,84.20
2023-02-08T13:46:19.649Z,85.70
2023-02-08T13:52:02.465Z,85.70
2023-02-08T13:56:58.013Z,87.10
2023-02-08T14:02:24.844Z,87.70
2023-02-08T14:07:28.993Z,88.30
2023-02-08T14:12:29.526Z,86.60
2023-02-08T14:17:27.377Z,85.80
2023-02-08T14:22:21.651Z,86.20
2023-02-08T14:27:22.815Z,86.20
2023-02-08T14:32:27.117Z,84.40
2023-02-08T14:37:31.138Z,83.60
2023-02-08T14:43:00.538Z,81.30
2023-02-08T14:48:15.644Z,80.70
2023-02-08T14:53:25.135Z,81.00
2023-02-08T14:58:32.418Z,82.50
2023-02-08T15:03:31.971Z,83.30
2023-02-08T15:08:26.608Z,84.00
2023-02-08T15:13:24.536Z,85.20
2023-02-08T15:18:22.373Z,86.50
2023-02-08T15:23:26.027Z,87.20
2023-02-08T15:28:21.448Z,87.50
2023-02-08T15:33:18.069Z,87.20
2023-02-08T15:38:18.066Z,87.90
2023-02-08T15:43:15.161Z,88.50
2023-02-08T15:48:09.616Z,89.60
2023-02-08T15:53:05.432Z,90.20
2023-02-08T15:58:02.705Z,91.10
2023-02-08T16:03:02.165Z,91.60
2023-02-08T16:07:57.012Z,92.30
2023-02-08T16:12:54.385Z,92.70
2023-02-08T16:17:48.971Z,93.10
2023-02-08T16:22:44.556Z,93.50
2023-02-08T16:27:38.133Z,94.00
2023-02-08T16:32:34.889Z,94.30
2023-02-08T16:37:31.400Z,94.60
2023-02-08T16:42:30.862Z,95.00
2023-02-08T16:47:29.153Z,95.20
2023-02-08T16:52:22.841Z,95.90
